Time;durP1;ratioP1;P1;durP2;ratioP2;P2;SDS_P1;SDS_P2;PMS_P1;PMS_P2;Temp;Humidity;BMP_temperature;BMP_pressure;BME280_temperature;BME280_humidity;BME280_pressure;Samples;Min_cycle;Max_cycle;Signal;HPM_P1;HPM_P2
2022/11/16 00:00:00;;;;;;;;;;;20.00;45.80;;;;;;5073276;28;19943;-69
2022/11/16 00:02:28;;;;;;;;;;;20.00;45.80;;;;;;5072675;28;19935;-69
2022/11/16 00:04:55;;;;;;;;;;;20.00;46.40;;;;;;5085016;28;19925;-70
2022/11/16 00:07:22;;;;;;;;;;;20.00;45.80;;;;;;5090297;28;20353;-69
2022/11/16 00:09:51;;;;;;;;;;;20.00;45.80;;;;;;5075486;28;19924;-69
2022/11/16 00:12:17;;;;;;;;;;;20.00;45.80;;;;;;5090077;28;19978;-69
2022/11/16 00:14:44;;;;;;;;;;;20.00;45.80;;;;;;5075344;28;19935;-68
2022/11/16 00:17:11;;;;;;;;;;;20.00;45.80;;;;;;5083156;28;19929;-68
2022/11/16 00:19:39;;;;;;;;;;;20.10;45.90;;;;;;5073733;28;19958;-68
2022/11/16 00:22:06;;;;;;;;;;;20.00;45.80;;;;;;5090758;28;19924;-69
2022/11/16 00:24:33;;;;;;;;;;;20.00;45.80;;;;;;5089397;28;19931;-69
2022/11/16 00:26:59;;;;;;;;;;;20.00;45.80;;;;;;5072954;28;19925;-67
2022/11/16 00:29:26;;;;;;;;;;;20.00;45.80;;;;;;5077851;28;19928;-69
2022/11/16 00:31:54;;;;;;;;;;;20.00;45.80;;;;;;5054714;28;19990;-68
2022/11/16 00:34:21;;;;;;;;;;;20.00;45.80;;;;;;5088801;28;20074;-68
2022/11/16 00:36:49;;;;;;;;;;;20.00;45.90;;;;;;5073191;28;19966;-69
2022/11/16 00:39:16;;;;;;;;;;;20.00;45.80;;;;;;5072748;28;20294;-69
2022/11/16 00:41:43;;;;;;;;;;;20.00;45.80;;;;;;5073770;28;19936;-70
2022/11/16 00:44:10;;;;;;;;;;;20.00;45.80;;;;;;5088784;28;19924;-69
2022/11/16 00:46:37;;;;;;;;;;;20.00;45.80;;;;;;5071752;28;19947;-69
2022/11/16 00:49:04;;;;;;;;;;;20.10;45.90;;;;;;5081792;28;19935;-69
2022/11/16 00:51:31;;;;;;;;;;;20.00;45.90;;;;;;5070009;28;19929;-69
2022/11/16 00:54:00;;;;;;;;;;;20.00;45.80;;;;;;5067801;28;19929;-69
2022/11/16 00:56:27;;;;;;;;;;;20.00;45.90;;;;;;5056509;28;20081;-68
2022/11/16 00:58:54;;;;;;;;;;;20.00;45.80;;;;;;5065818;28;19978;-69
2022/11/16 01:01:21;;;;;;;;;;;20.00;45.90;;;;;;5062095;28;20333;-69
2022/11/16 01:03:47;;;;;;;;;;;20.00;45.80;;;;;;5065172;28;19931;-69
2022/11/16 01:06:14;;;;;;;;;;;20.00;45.90;;;;;;5073239;28;19986;-69
2022/11/16 01:08:41;;;;;;;;;;;20.00;45.80;;;;;;5093475;28;19928;-68
2022/11/16 01:13:53;;;;;;;;;;;20.00;45.80;;;;;;5086048;28;19954;-69
2022/11/16 01:16:23;;;;;;;;;;;20.00;45.80;;;;;;5082814;28;19930;-69
2022/11/16 01:18:50;;;;;;;;;;;20.00;45.90;;;;;;5091552;28;19927;-69
2022/11/16 01:21:16;;;;;;;;;;;20.00;45.90;;;;;;5105653;28;19924;-70
2022/11/16 01:23:43;;;;;;;;;;;20.00;45.90;;;;;;5068376;28;19932;-68
2022/11/16 01:26:11;;;;;;;;;;;20.00;45.90;;;;;;5089854;28;20329;-68
2022/11/16 01:28:38;;;;;;;;;;;20.00;45.80;;;;;;5072765;28;19932;-68
2022/11/16 01:31:05;;;;;;;;;;;20.00;45.90;;;;;;5088896;28;19971;-69
2022/11/16 01:33:32;;;;;;;;;;;20.00;45.90;;;;;;5073513;28;19932;-68
2022/11/16 01:35:59;;;;;;;;;;;20.00;45.80;;;;;;5063750;28;19925;-69
2022/11/16 01:38:27;;;;;;;;;;;20.00;45.90;;;;;;5067965;28;19928;-69
2022/11/16 01:40:54;;;;;;;;;;;20.00;45.80;;;;;;5068118;28;19986;-69
2022/11/16 01:43:26;;;;;;;;;;;20.00;45.80;;;;;;5053720;28;19975;-69
2022/11/16 01:45:53;;;;;;;;;;;20.00;45.90;;;;;;5067836;28;19928;-68
2022/11/16 01:48:21;;;;;;;;;;;20.00;45.90;;;;;;5070600;28;19978;-69
2022/11/16 01:50:48;;;;;;;;;;;20.00;45.80;;;;;;5072153;28;19929;-68
2022/11/16 01:53:14;;;;;;;;;;;20.00;45.90;;;;;;5072676;28;19996;-69
2022/11/16 01:55:41;;;;;;;;;;;20.00;45.80;;;;;;5069186;28;19985;-70
2022/11/16 01:58:08;;;;;;;;;;;20.00;45.90;;;;;;5056990;28;19979;-69
2022/11/16 02:00:36;;;;;;;;;;;20.00;45.80;;;;;;5060156;28;19925;-68
2022/11/16 02:03:03;;;;;;;;;;;20.00;45.80;;;;;;5072264;28;19928;-68
2022/11/16 02:05:30;;;;;;;;;;;20.00;45.80;;;;;;5070723;28;19924;-68
2022/11/16 02:10:50;;;;;;;;;;;20.00;45.80;;;;;;5094282;28;19998;-68
2022/11/16 02:13:23;;;;;;;;;;;20.00;45.80;;;;;;5076359;28;19925;-69
2022/11/16 02:15:52;;;;;;;;;;;20.10;45.90;;;;;;5074467;28;19925;-69
2022/11/16 02:18:21;;;;;;;;;;;20.00;45.80;;;;;;5071045;28;19924;-69
2022/11/16 02:21:02;;;;;;;;;;;20.00;45.80;;;;;;5069579;28;19933;-69
2022/11/16 02:23:41;;;;;;;;;;;20.00;45.80;;;;;;5066680;28;19939;-69
2022/11/16 02:26:13;;;;;;;;;;;20.00;45.80;;;;;;5084841;28;19932;-69
2022/11/16 02:28:42;;;;;;;;;;;20.00;45.80;;;;;;5087460;28;20001;-68
2022/11/16 02:31:12;;;;;;;;;;;20.00;45.90;;;;;;5069919;28;19924;-68
2022/11/16 02:33:39;;;;;;;;;;;20.10;45.90;;;;;;5077752;28;19970;-69
2022/11/16 02:36:06;;;;;;;;;;;20.00;45.80;;;;;;5066831;28;19989;-68
2022/11/16 02:38:33;;;;;;;;;;;20.00;45.80;;;;;;5072913;28;19925;-70
2022/11/16 02:41:01;;;;;;;;;;;20.00;45.80;;;;;;5077683;28;19932;-68
2022/11/16 02:43:29;;;;;;;;;;;20.00;45.80;;;;;;5087585;28;19924;-67
2022/11/16 02:45:57;;;;;;;;;;;20.00;45.80;;;;;;5069757;28;19925;-69
2022/11/16 02:48:26;;;;;;;;;;;20.00;45.80;;;;;;5067845;28;19928;-68
2022/11/16 02:50:52;;;;;;;;;;;20.00;45.80;;;;;;5088256;28;19924;-69
2022/11/16 02:53:20;;;;;;;;;;;20.00;45.80;;;;;;5072438;28;20286;-68
2022/11/16 02:55:46;;;;;;;;;;;20.00;45.80;;;;;;5082509;28;19936;-68
2022/11/16 02:58:14;;;;;;;;;;;20.00;45.80;;;;;;5053225;28;19928;-68
2022/11/16 03:00:42;;;;;;;;;;;20.00;45.80;;;;;;5087108;28;19925;-69
2022/11/16 03:03:12;;;;;;;;;;;20.00;45.80;;;;;;5071207;28;20293;-68
2022/11/16 03:05:40;;;;;;;;;;;20.00;45.80;;;;;;5071158;28;19932;-67
2022/11/16 03:08:09;;;;;;;;;;;20.00;45.80;;;;;;5069853;28;19970;-69
2022/11/16 03:13:21;;;;;;;;;;;20.00;45.80;;;;;;5073564;28;19924;-69
2022/11/16 03:15:47;;;;;;;;;;;20.00;45.80;;;;;;5086943;28;19925;-69
2022/11/16 03:18:14;;;;;;;;;;;20.00;45.80;;;;;;5077797;28;19932;-68
2022/11/16 03:20:42;;;;;;;;;;;20.00;45.80;;;;;;5068763;28;19925;-68
2022/11/16 03:23:10;;;;;;;;;;;20.00;45.80;;;;;;5071694;28;19932;-68
2022/11/16 03:25:37;;;;;;;;;;;20.00;45.80;;;;;;5074625;28;19985;-68
2022/11/16 03:28:06;;;;;;;;;;;20.00;45.80;;;;;;5074235;28;19932;-68
2022/11/16 03:30:33;;;;;;;;;;;20.00;45.80;;;;;;5082467;28;19928;-69
2022/11/16 03:33:01;;;;;;;;;;;20.00;45.80;;;;;;5111751;28;20004;-69
2022/11/16 03:35:40;;;;;;;;;;;20.00;45.80;;;;;;5072553;28;19932;-69
2022/11/16 03:38:08;;;;;;;;;;;20.00;45.80;;;;;;5074799;28;19931;-69
2022/11/16 03:40:35;;;;;;;;;;;20.00;45.80;;;;;;5073818;28;19974;-68
2022/11/16 03:43:02;;;;;;;;;;;20.00;45.80;;;;;;5091373;28;19928;-68
2022/11/16 03:45:29;;;;;;;;;;;20.00;45.80;;;;;;5077729;28;19954;-67
2022/11/16 03:47:55;;;;;;;;;;;20.00;45.80;;;;;;5073445;28;19947;-69
2022/11/16 03:50:22;;;;;;;;;;;20.00;46.40;;;;;;5090668;28;19924;-67
2022/11/16 03:52:49;;;;;;;;;;;20.00;45.80;;;;;;5090818;28;19940;-68
2022/11/16 03:55:17;;;;;;;;;;;20.00;45.80;;;;;;5090985;28;19931;-68
2022/11/16 03:57:44;;;;;;;;;;;20.00;45.80;;;;;;5069362;28;19929;-69
2022/11/16 04:00:11;;;;;;;;;;;20.00;45.80;;;;;;5053914;28;20321;-68
2022/11/16 04:02:38;;;;;;;;;;;20.00;45.80;;;;;;5095479;28;19934;-68
2022/11/16 04:24:24;;;;;;;;;;;20.00;45.80;;;;;;5087798;28;19925;-70
2022/11/16 04:29:45;;;;;;;;;;;20.00;45.80;;;;;;5035203;28;20005;-69
2022/11/16 04:37:51;;;;;;;;;;;20.00;45.80;;;;;;5070008;28;19932;-68
2022/11/16 04:40:18;;;;;;;;;;;20.00;45.80;;;;;;5055555;28;19925;-67
2022/11/16 04:42:51;;;;;;;;;;;20.00;45.80;;;;;;5070039;28;19935;-69
2022/11/16 04:48:02;;;;;;;;;;;20.00;45.80;;;;;;5089954;28;20279;-68
2022/11/16 04:50:29;;;;;;;;;;;20.00;45.80;;;;;;5080457;28;19990;-69
2022/11/16 04:52:56;;;;;;;;;;;20.00;45.80;;;;;;5079314;28;19982;-69
2022/11/16 04:55:22;;;;;;;;;;;20.00;45.80;;;;;;5073069;28;19966;-68
2022/11/16 04:57:51;;;;;;;;;;;20.00;45.80;;;;;;5056557;28;19932;-68
2022/11/16 05:00:18;;;;;;;;;;;20.00;45.80;;;;;;5082407;28;19924;-67
2022/11/16 05:02:44;;;;;;;;;;;20.00;45.80;;;;;;5072371;28;19928;-69
2022/11/16 05:05:11;;;;;;;;;;;20.00;45.80;;;;;;5073510;28;19925;-68
2022/11/16 05:07:38;;;;;;;;;;;20.00;45.80;;;;;;5089412;28;19932;-68
2022/11/16 05:10:05;;;;;;;;;;;20.00;45.80;;;;;;5082662;28;19928;-68
2022/11/16 05:12:32;;;;;;;;;;;20.00;45.80;;;;;;5072804;28;19925;-69
2022/11/16 05:15:00;;;;;;;;;;;20.00;45.80;;;;;;5088660;28;19925;-70
2022/11/16 05:17:27;;;;;;;;;;;20.00;45.80;;;;;;5082065;28;19928;-69
2022/11/16 05:22:38;;;;;;;;;;;20.00;45.80;;;;;;5073736;28;19995;-68
2022/11/16 05:25:06;;;;;;;;;;;20.00;45.80;;;;;;5070706;28;20274;-68
2022/11/16 05:27:32;;;;;;;;;;;20.00;45.80;;;;;;5089431;28;19925;-68
2022/11/16 05:30:00;;;;;;;;;;;20.00;45.80;;;;;;5072096;28;19924;-69
2022/11/16 05:32:27;;;;;;;;;;;20.00;45.80;;;;;;5073428;28;19928;-69
2022/11/16 05:34:54;;;;;;;;;;;20.00;45.80;;;;;;5071736;28;19963;-69
2022/11/16 05:37:25;;;;;;;;;;;20.00;45.80;;;;;;5093892;28;19924;-69
2022/11/16 05:39:51;;;;;;;;;;;20.00;45.80;;;;;;5085659;28;19928;-68
2022/11/16 05:42:19;;;;;;;;;;;20.00;45.80;;;;;;5087954;28;19931;-69
2022/11/16 05:44:45;;;;;;;;;;;20.00;45.80;;;;;;5071652;28;19978;-70
2022/11/16 05:47:13;;;;;;;;;;;20.00;45.80;;;;;;5072233;28;19971;-67
2022/11/16 05:49:40;;;;;;;;;;;20.00;45.80;;;;;;5071125;28;19947;-69
2022/11/16 05:52:07;;;;;;;;;;;20.00;45.80;;;;;;5088838;28;19932;-69
2022/11/16 05:54:34;;;;;;;;;;;20.00;45.80;;;;;;5075187;28;19925;-70
2022/11/16 05:57:01;;;;;;;;;;;20.00;45.80;;;;;;5065801;28;19961;-69
2022/11/16 05:59:28;;;;;;;;;;;20.00;45.70;;;;;;5069688;28;19925;-68
2022/11/16 06:01:55;;;;;;;;;;;20.00;45.70;;;;;;5085315;28;20021;-68
2022/11/16 06:04:23;;;;;;;;;;;20.00;45.70;;;;;;5085579;28;19924;-71
2022/11/16 06:06:50;;;;;;;;;;;20.00;45.70;;;;;;5069821;28;19928;-70
2022/11/16 06:09:17;;;;;;;;;;;20.00;45.80;;;;;;5071529;28;19930;-68
2022/11/16 06:11:44;;;;;;;;;;;20.00;45.80;;;;;;5069323;28;19978;-69
2022/11/16 06:14:11;;;;;;;;;;;20.00;45.80;;;;;;5073620;28;19973;-70
2022/11/16 06:16:37;;;;;;;;;;;20.00;45.80;;;;;;5087191;28;19921;-69
2022/11/16 06:19:04;;;;;;;;;;;20.00;45.80;;;;;;5069269;28;19928;-70
2022/11/16 06:21:32;;;;;;;;;;;20.00;45.80;;;;;;5077911;28;19978;-68
2022/11/16 06:24:01;;;;;;;;;;;20.00;45.80;;;;;;5083806;28;20394;-69
2022/11/16 06:26:28;;;;;;;;;;;20.00;45.80;;;;;;5086835;28;19971;-68
2022/11/16 06:28:57;;;;;;;;;;;20.00;45.80;;;;;;5068044;28;19924;-69
2022/11/16 06:31:24;;;;;;;;;;;20.00;45.70;;;;;;5080688;28;20374;-68
2022/11/16 06:33:50;;;;;;;;;;;20.00;45.70;;;;;;5084790;28;19929;-69
2022/11/16 06:36:17;;;;;;;;;;;20.00;45.80;;;;;;5086559;28;20027;-70
2022/11/16 06:38:45;;;;;;;;;;;20.00;45.70;;;;;;5067455;28;19935;-68
2022/11/16 06:41:12;;;;;;;;;;;20.00;45.70;;;;;;5069667;28;19932;-69
2022/11/16 06:43:39;;;;;;;;;;;20.00;45.80;;;;;;5085400;28;20317;-68
2022/11/16 06:46:06;;;;;;;;;;;20.00;45.80;;;;;;5071838;28;19928;-69
2022/11/16 06:48:33;;;;;;;;;;;20.00;45.70;;;;;;5079874;28;19939;-69
2022/11/16 06:51:00;;;;;;;;;;;20.00;45.70;;;;;;5071256;28;19925;-69
2022/11/16 06:53:26;;;;;;;;;;;20.00;45.80;;;;;;5067457;28;19959;-69
2022/11/16 06:55:55;;;;;;;;;;;20.00;45.70;;;;;;5065587;28;19932;-69
2022/11/16 06:58:21;;;;;;;;;;;20.00;45.70;;;;;;5067810;28;19932;-70
2022/11/16 07:00:48;;;;;;;;;;;20.00;45.70;;;;;;5068910;28;20019;-68
2022/11/16 07:03:17;;;;;;;;;;;20.00;45.70;;;;;;5082426;28;19939;-68
2022/11/16 07:05:44;;;;;;;;;;;20.00;45.70;;;;;;5070452;28;20663;-69
2022/11/16 07:08:11;;;;;;;;;;;20.00;45.70;;;;;;5067720;28;19932;-69
2022/11/16 07:10:41;;;;;;;;;;;20.00;45.80;;;;;;5069485;28;19925;-69
2022/11/16 07:13:11;;;;;;;;;;;20.00;45.70;;;;;;5090223;28;19967;-69
2022/11/16 07:15:40;;;;;;;;;;;20.00;45.70;;;;;;5068448;28;19935;-70
2022/11/16 07:18:07;;;;;;;;;;;20.00;45.70;;;;;;5069252;28;19924;-69
2022/11/16 07:20:34;;;;;;;;;;;20.00;45.70;;;;;;5079524;28;19986;-69
2022/11/16 07:23:01;;;;;;;;;;;20.00;45.70;;;;;;5069440;28;19932;-69
2022/11/16 07:25:28;;;;;;;;;;;20.00;45.70;;;;;;5066705;28;19924;-69
2022/11/16 07:27:55;;;;;;;;;;;20.00;45.70;;;;;;5068810;28;19935;-70
2022/11/16 07:30:23;;;;;;;;;;;20.00;45.70;;;;;;5067746;28;19935;-68
2022/11/16 07:32:50;;;;;;;;;;;20.00;45.70;;;;;;5081605;28;19925;-68
2022/11/16 07:35:17;;;;;;;;;;;20.00;45.70;;;;;;5070049;28;20428;-69
2022/11/16 07:37:54;;;;;;;;;;;20.00;45.70;;;;;;5069689;28;19928;-69
2022/11/16 07:40:20;;;;;;;;;;;20.00;45.70;;;;;;5086498;28;19950;-67
2022/11/16 07:42:48;;;;;;;;;;;20.00;45.70;;;;;;5084647;28;19978;-68
2022/11/16 07:45:15;;;;;;;;;;;20.00;45.70;;;;;;5069466;28;20031;-69
2022/11/16 07:47:43;;;;;;;;;;;20.00;45.70;;;;;;5072962;28;19924;-69
2022/11/16 07:50:10;;;;;;;;;;;20.00;45.70;;;;;;5070010;28;19925;-69
2022/11/16 07:52:37;;;;;;;;;;;20.00;45.70;;;;;;5085769;28;19936;-69
2022/11/16 07:55:04;;;;;;;;;;;20.00;45.70;;;;;;5063697;28;19933;-67
2022/11/16 07:57:31;;;;;;;;;;;20.00;45.70;;;;;;5086716;28;19928;-69
2022/11/16 07:59:58;;;;;;;;;;;20.00;45.70;;;;;;5072620;28;19924;-67
2022/11/16 08:02:24;;;;;;;;;;;20.00;45.70;;;;;;5063884;28;20005;-69
2022/11/16 08:04:53;;;;;;;;;;;20.00;45.70;;;;;;5069034;28;19947;-68
2022/11/16 08:07:20;;;;;;;;;;;20.00;45.70;;;;;;5068696;28;19925;-67
2022/11/16 08:09:47;;;;;;;;;;;20.00;45.70;;;;;;5070190;28;19924;-65
2022/11/16 08:12:13;;;;;;;;;;;20.00;46.10;;;;;;5085760;28;19924;-66
2022/11/16 08:14:40;;;;;;;;;;;20.00;45.70;;;;;;5090854;28;19982;-67
2022/11/16 08:17:07;;;;;;;;;;;20.00;45.80;;;;;;5090041;28;19935;-68
2022/11/16 08:19:35;;;;;;;;;;;20.00;45.80;;;;;;5074228;28;19925;-66
2022/11/16 08:22:03;;;;;;;;;;;20.00;45.80;;;;;;5078853;28;19936;-69
2022/11/16 08:24:30;;;;;;;;;;;20.00;45.80;;;;;;5071315;28;19931;-64
2022/11/16 08:26:57;;;;;;;;;;;20.10;45.80;;;;;;5074953;28;19935;-67
2022/11/16 08:29:24;;;;;;;;;;;20.10;45.90;;;;;;5090423;28;20049;-66
2022/11/16 08:31:53;;;;;;;;;;;20.10;45.90;;;;;;5084898;28;20015;-66
2022/11/16 08:34:20;;;;;;;;;;;20.10;45.90;;;;;;5091490;28;19924;-67
2022/11/16 08:36:47;;;;;;;;;;;20.10;45.90;;;;;;5091289;28;19935;-66
2022/11/16 08:39:15;;;;;;;;;;;20.10;45.90;;;;;;5071852;28;19928;-66
2022/11/16 08:41:43;;;;;;;;;;;20.10;46.00;;;;;;5084979;28;19955;-66
2022/11/16 08:44:10;;;;;;;;;;;20.10;46.00;;;;;;5088731;28;19930;-66
2022/11/16 08:46:36;;;;;;;;;;;20.10;46.00;;;;;;5088664;28;19928;-65
2022/11/16 08:49:03;;;;;;;;;;;20.10;46.00;;;;;;5080376;28;19997;-66
2022/11/16 08:51:30;;;;;;;;;;;20.10;46.00;;;;;;5074999;28;19964;-66
2022/11/16 08:53:57;;;;;;;;;;;20.10;46.00;;;;;;5088562;28;19928;-64
2022/11/16 08:56:26;;;;;;;;;;;20.10;46.00;;;;;;5070170;28;19932;-65
2022/11/16 08:58:54;;;;;;;;;;;20.20;46.10;;;;;;5067821;28;19925;-65
2022/11/16 09:01:24;;;;;;;;;;;20.20;46.10;;;;;;5078960;28;19925;-65
2022/11/16 09:03:54;;;;;;;;;;;20.20;46.10;;;;;;5085351;28;20544;-65
2022/11/16 09:06:20;;;;;;;;;;;20.20;46.10;;;;;;5094425;28;19947;-66
2022/11/16 09:08:47;;;;;;;;;;;20.20;46.10;;;;;;5071931;28;19973;-68
2022/11/16 09:11:16;;;;;;;;;;;20.20;46.10;;;;;;5077439;28;19951;-66
2022/11/16 09:13:44;;;;;;;;;;;20.20;46.10;;;;;;5087305;28;19925;-65
2022/11/16 09:16:14;;;;;;;;;;;20.20;46.10;;;;;;5081620;28;19932;-67
2022/11/16 09:18:41;;;;;;;;;;;20.20;46.10;;;;;;5083965;28;19928;-65
2022/11/16 09:21:08;;;;;;;;;;;20.20;46.10;;;;;;5071742;28;19928;-64
2022/11/16 09:23:35;;;;;;;;;;;20.20;46.10;;;;;;5069792;28;19924;-65
2022/11/16 09:26:02;;;;;;;;;;;20.20;46.10;;;;;;5074568;28;20015;-65
2022/11/16 09:28:30;;;;;;;;;;;20.20;46.10;;;;;;5089351;28;19928;-65
2022/11/16 09:31:00;;;;;;;;;;;20.30;46.20;;;;;;5092150;28;20031;-65
2022/11/16 09:33:28;;;;;;;;;;;20.30;46.20;;;;;;5097114;28;19928;-65
2022/11/16 09:35:57;;;;;;;;;;;20.30;46.30;;;;;;5087500;28;19932;-65
2022/11/16 09:38:24;;;;;;;;;;;20.30;46.20;;;;;;5072645;28;19970;-66
2022/11/16 09:40:51;;;;;;;;;;;20.30;46.30;;;;;;5073479;28;19925;-67
2022/11/16 09:43:24;;;;;;;;;;;20.30;46.20;;;;;;5067754;28;19929;-66
2022/11/16 09:45:52;;;;;;;;;;;20.30;46.30;;;;;;5087627;28;19939;-66
2022/11/16 09:48:21;;;;;;;;;;;20.30;46.30;;;;;;5072159;28;19939;-67
2022/11/16 09:50:48;;;;;;;;;;;20.30;46.20;;;;;;5075081;28;20397;-69
2022/11/16 09:53:20;;;;;;;;;;;20.30;46.30;;;;;;5070552;28;19928;-67
2022/11/16 09:55:47;;;;;;;;;;;20.30;46.20;;;;;;5075300;28;19925;-67
2022/11/16 09:58:15;;;;;;;;;;;20.30;46.30;;;;;;5072898;28;19934;-66
2022/11/16 10:00:41;;;;;;;;;;;20.30;46.30;;;;;;5070474;28;20339;-67
2022/11/16 10:03:10;;;;;;;;;;;20.30;46.30;;;;;;5082729;28;20389;-66
2022/11/16 10:05:43;;;;;;;;;;;20.30;46.30;;;;;;5090629;28;19928;-67
2022/11/16 10:08:11;;;;;;;;;;;20.30;46.30;;;;;;5086340;28;19974;-67
2022/11/16 10:10:38;;;;;;;;;;;20.30;46.30;;;;;;5069405;28;19924;-67
2022/11/16 10:13:08;;;;;;;;;;;20.30;46.30;;;;;;5087963;28;19924;-67
2022/11/16 10:15:40;;;;;;;;;;;20.30;46.30;;;;;;5091136;28;20377;-66
2022/11/16 10:18:10;;;;;;;;;;;20.30;46.30;;;;;;5075647;28;19924;-66
2022/11/16 10:20:41;;;;;;;;;;;20.30;46.40;;;;;;5083297;28;19951;-72
2022/11/16 10:23:10;;;;;;;;;;;20.30;45.40;;;;;;5071180;28;19925;-66
2022/11/16 10:25:38;;;;;;;;;;;20.30;43.20;;;;;;5069690;28;20402;-64
2022/11/16 10:28:10;;;;;;;;;;;20.20;43.50;;;;;;5092315;28;19925;-67
2022/11/16 10:30:38;;;;;;;;;;;20.10;43.90;;;;;;5093008;28;19971;-71
2022/11/16 10:33:06;;;;;;;;;;;20.00;44.20;;;;;;5071717;28;19942;-64
2022/11/16 10:35:34;;;;;;;;;;;20.00;44.50;;;;;;5070057;28;19966;-67
2022/11/16 10:38:03;;;;;;;;;;;20.00;44.60;;;;;;5082447;28;20015;-66
2022/11/16 10:40:30;;;;;;;;;;;20.00;44.80;;;;;;5081878;28;19932;-65
2022/11/16 10:42:59;;;;;;;;;;;20.00;44.90;;;;;;5076092;28;19978;-66
2022/11/16 10:45:28;;;;;;;;;;;20.00;45.00;;;;;;5085318;28;19928;-66
2022/11/16 10:47:57;;;;;;;;;;;20.00;45.10;;;;;;5089958;28;19931;-66
2022/11/16 10:50:36;;;;;;;;;;;20.00;45.10;;;;;;5075255;28;19963;-66
2022/11/16 10:53:04;;;;;;;;;;;20.10;45.30;;;;;;5082637;28;19950;-66
2022/11/16 10:55:34;;;;;;;;;;;20.10;45.30;;;;;;5106562;28;20374;-65
2022/11/16 10:58:01;;;;;;;;;;;20.10;45.40;;;;;;5087368;28;19924;-67
2022/11/16 11:00:34;;;;;;;;;;;20.10;45.40;;;;;;5078427;28;19931;-67
2022/11/16 11:03:03;;;;;;;;;;;20.10;45.40;;;;;;5071573;28;20342;-66
2022/11/16 11:05:33;;;;;;;;;;;20.10;45.50;;;;;;5070041;28;19925;-64
2022/11/16 11:08:01;;;;;;;;;;;20.10;45.50;;;;;;5089643;28;19925;-63
2022/11/16 11:10:30;;;;;;;;;;;20.10;45.50;;;;;;5081176;28;19929;-64
2022/11/16 11:13:04;;;;;;;;;;;20.20;45.70;;;;;;5075113;28;19935;-65
2022/11/16 11:15:31;;;;;;;;;;;20.20;45.70;;;;;;5074486;28;19978;-65
2022/11/16 11:18:11;;;;;;;;;;;20.20;45.70;;;;;;5073035;28;19936;-64
2022/11/16 11:20:40;;;;;;;;;;;20.20;45.70;;;;;;5084420;28;19929;-64
2022/11/16 11:23:11;;;;;;;;;;;20.20;45.80;;;;;;5075896;28;19947;-64
2022/11/16 11:25:40;;;;;;;;;;;20.20;45.80;;;;;;5074128;28;19931;-65
2022/11/16 11:28:07;;;;;;;;;;;20.20;45.80;;;;;;5070208;28;19924;-66
2022/11/16 11:30:34;;;;;;;;;;;20.20;45.80;;;;;;5073511;28;19924;-65
2022/11/16 11:33:01;;;;;;;;;;;20.20;45.90;;;;;;5084187;28;19924;-65
2022/11/16 11:35:28;;;;;;;;;;;20.20;45.90;;;;;;5071003;28;19929;-64
2022/11/16 11:37:56;;;;;;;;;;;20.20;45.90;;;;;;5086458;28;20005;-64
2022/11/16 11:40:23;;;;;;;;;;;20.20;45.90;;;;;;5069333;28;19955;-66
2022/11/16 11:43:08;;;;;;;;;;;20.20;46.00;;;;;;5074938;28;19977;-64
2022/11/16 11:45:42;;;;;;;;;;;20.20;46.00;;;;;;5082672;28;20063;-65
2022/11/16 11:48:14;;;;;;;;;;;20.30;46.00;;;;;;5075142;28;19925;-65
2022/11/16 11:50:43;;;;;;;;;;;20.30;46.10;;;;;;5072465;28;19932;-64
2022/11/16 11:53:13;;;;;;;;;;;20.30;46.00;;;;;;5071926;28;19975;-66
2022/11/16 11:55:39;;;;;;;;;;;20.30;46.10;;;;;;5087471;28;19935;-65
2022/11/16 11:58:09;;;;;;;;;;;20.30;46.10;;;;;;5087100;28;19935;-65
2022/11/16 12:00:37;;;;;;;;;;;20.30;46.00;;;;;;5073779;28;19940;-65
2022/11/16 12:03:34;;;;;;;;;;;20.30;45.90;;;;;;5074130;28;19924;-65
2022/11/16 12:06:13;;;;;;;;;;;20.30;45.80;;;;;;5071772;28;19924;-65
2022/11/16 12:08:44;;;;;;;;;;;20.30;45.70;;;;;;5066971;28;19936;-65
2022/11/16 12:11:14;;;;;;;;;;;20.30;45.60;;;;;;5071142;28;19929;-65
2022/11/16 12:13:49;;;;;;;;;;;20.20;45.40;;;;;;5086282;28;19924;-66
2022/11/16 12:16:18;;;;;;;;;;;20.20;45.30;;;;;;5074591;28;20031;-66
2022/11/16 12:18:49;;;;;;;;;;;20.20;45.20;;;;;;5090498;28;19974;-65
2022/11/16 12:21:17;;;;;;;;;;;20.20;45.10;;;;;;5074600;28;19924;-66
2022/11/16 12:24:05;;;;;;;;;;;20.20;45.00;;;;;;5081903;28;19952;-66
2022/11/16 12:26:34;;;;;;;;;;;20.20;45.00;;;;;;5080935;28;19977;-66
2022/11/16 12:29:07;;;;;;;;;;;20.20;45.00;;;;;;5087430;28;19924;-66
2022/11/16 12:31:37;;;;;;;;;;;20.20;45.00;;;;;;5071773;28;19925;-66
2022/11/16 12:34:05;;;;;;;;;;;20.10;44.90;;;;;;5074604;28;19924;-66
2022/11/16 12:36:35;;;;;;;;;;;20.10;44.90;;;;;;5089024;28;19929;-66
2022/11/16 12:39:04;;;;;;;;;;;20.10;44.90;;;;;;5073858;28;19928;-66
2022/11/16 12:41:42;;;;;;;;;;;20.10;44.90;;;;;;5086500;28;19932;-65
2022/11/16 12:44:09;;;;;;;;;;;20.10;44.90;;;;;;5084942;28;19939;-66
2022/11/16 12:46:38;;;;;;;;;;;20.10;44.90;;;;;;5067847;28;19924;-66
2022/11/16 12:49:13;;;;;;;;;;;20.10;44.90;;;;;;5069853;28;19931;-66
2022/11/16 12:51:52;;;;;;;;;;;20.10;44.80;;;;;;5080787;28;19932;-65
2022/11/16 12:54:27;;;;;;;;;;;20.10;44.10;;;;;;5079013;28;19931;-66
2022/11/16 12:56:55;;;;;;;;;;;20.00;43.80;;;;;;5063834;28;19932;-65
2022/11/16 12:59:39;;;;;;;;;;;20.00;43.80;;;;;;5081881;28;19962;-66
2022/11/16 13:02:10;;;;;;;;;;;19.90;43.30;;;;;;5082714;28;19929;-66
2022/11/16 13:04:39;;;;;;;;;;;19.80;43.20;;;;;;5080677;28;19965;-65
2022/11/16 13:07:08;;;;;;;;;;;19.70;43.30;;;;;;5079695;28;19940;-66
2022/11/16 13:09:36;;;;;;;;;;;19.70;43.50;;;;;;5069806;28;19924;-66
2022/11/16 13:12:03;;;;;;;;;;;19.60;43.50;;;;;;5094458;28;19924;-66
2022/11/16 13:14:32;;;;;;;;;;;19.60;43.50;;;;;;5070365;28;19967;-67
2022/11/16 13:16:59;;;;;;;;;;;19.60;43.60;;;;;;5083448;28;19924;-65
2022/11/16 13:19:26;;;;;;;;;;;19.50;43.60;;;;;;5067829;28;20371;-66
2022/11/16 13:21:54;;;;;;;;;;;19.50;43.80;;;;;;5084732;28;19935;-67
2022/11/16 13:24:24;;;;;;;;;;;19.50;44.00;;;;;;5068031;28;19925;-66
2022/11/16 13:26:54;;;;;;;;;;;19.50;44.10;;;;;;5068845;28;19932;-66
2022/11/16 13:29:26;;;;;;;;;;;19.50;44.20;;;;;;5083030;28;19929;-67
2022/11/16 13:31:53;;;;;;;;;;;19.50;44.30;;;;;;5065648;28;20297;-67
2022/11/16 13:34:22;;;;;;;;;;;19.50;44.40;;;;;;5066124;28;19932;-67
2022/11/16 13:36:49;;;;;;;;;;;19.50;44.50;;;;;;5087049;28;19967;-66
2022/11/16 13:39:16;;;;;;;;;;;19.50;44.50;;;;;;5073756;28;19943;-66
2022/11/16 13:41:45;;;;;;;;;;;19.60;44.70;;;;;;5072228;28;19928;-68
2022/11/16 13:44:27;;;;;;;;;;;19.60;44.70;;;;;;5092937;28;19954;-69
2022/11/16 13:46:54;;;;;;;;;;;19.60;44.80;;;;;;5074441;28;19931;-68
2022/11/16 13:49:22;;;;;;;;;;;19.70;44.90;;;;;;5074500;28;19940;-66
2022/11/16 13:51:52;;;;;;;;;;;19.70;44.90;;;;;;5079663;28;19978;-68
2022/11/16 13:54:26;;;;;;;;;;;19.70;44.90;;;;;;5073541;28;19924;-66
2022/11/16 13:56:55;;;;;;;;;;;19.70;45.00;;;;;;5071596;28;19932;-68
2022/11/16 13:59:23;;;;;;;;;;;19.80;45.10;;;;;;5080441;28;20289;-66
2022/11/16 14:01:57;;;;;;;;;;;19.80;45.20;;;;;;5080665;28;19931;-67
2022/11/16 14:04:34;;;;;;;;;;;19.80;45.20;;;;;;5078997;28;19942;-66
2022/11/16 14:07:01;;;;;;;;;;;19.80;45.20;;;;;;5063418;28;20030;-66
2022/11/16 14:09:44;;;;;;;;;;;19.80;45.20;;;;;;5087432;28;19928;-66
2022/11/16 14:12:34;;;;;;;;;;;19.80;45.30;;;;;;5077873;28;20170;-68
2022/11/16 14:15:03;;;;;;;;;;;19.90;45.30;;;;;;5043498;28;19942;-68
2022/11/16 14:17:56;;;;;;;;;;;19.90;45.30;;;;;;5095737;28;20382;-66
2022/11/16 14:20:24;;;;;;;;;;;19.90;45.40;;;;;;5074328;28;19931;-68
2022/11/16 14:22:53;;;;;;;;;;;19.90;45.40;;;;;;5077217;28;19935;-68
2022/11/16 14:25:29;;;;;;;;;;;20.00;45.50;;;;;;5074527;28;19925;-67
2022/11/16 14:27:58;;;;;;;;;;;19.90;45.40;;;;;;5088038;28;19975;-68
2022/11/16 14:30:27;;;;;;;;;;;20.00;45.50;;;;;;5087542;28;20382;-66
2022/11/16 14:32:54;;;;;;;;;;;20.00;45.50;;;;;;5087186;28;19924;-67
2022/11/16 14:35:26;;;;;;;;;;;20.00;45.60;;;;;;5080976;28;20302;-67
2022/11/16 14:37:56;;;;;;;;;;;20.00;45.60;;;;;;5073640;28;19928;-66
2022/11/16 14:40:22;;;;;;;;;;;20.00;45.60;;;;;;5069723;28;20305;-66
2022/11/16 14:42:51;;;;;;;;;;;20.00;45.60;;;;;;5085246;28;23082;-66
2022/11/16 14:45:20;;;;;;;;;;;20.00;45.60;;;;;;5070360;28;19924;-64
2022/11/16 14:47:49;;;;;;;;;;;20.00;45.70;;;;;;5070635;28;19924;-64
2022/11/16 14:50:19;;;;;;;;;;;20.00;45.70;;;;;;5084321;28;19925;-67
2022/11/16 14:52:47;;;;;;;;;;;20.10;45.80;;;;;;5086018;28;19924;-65
2022/11/16 14:55:17;;;;;;;;;;;20.10;45.80;;;;;;5085105;28;20010;-65
2022/11/16 14:57:44;;;;;;;;;;;20.10;45.80;;;;;;5069425;28;19932;-66
2022/11/16 15:00:11;;;;;;;;;;;20.10;45.80;;;;;;5089963;28;19933;-65
2022/11/16 15:02:38;;;;;;;;;;;20.10;45.80;;;;;;5093542;28;19924;-66
2022/11/16 15:05:07;;;;;;;;;;;20.10;45.80;;;;;;5077305;28;19931;-66